Adna, Washington
Current Conditions -  °F | °C
As of 1:15 PM on Wednesday 26 Nov 2014 (Local Time) from KCLS Reporting Station
Overcast Overcast  
Wind Chill: 61°   Ceiling: 3900
Heat Index: 61°   Visibility: 10mi
Dew Point: 54°   Wind: 9mph
Humidity: 77%   Direction: 190°S
Pressure: 30.07"   Gusts: NA
Location:  46.63°N, 123.06°W
Report Text: KCLS 262115Z AUTO 19008KT 10SM OVC039 16/12 A3007 RMK AO2
Loading
Personal Weather Stations






























Interactive Weather Map New forecast layout! Learn more

10-Day Weather Forecast

Advertisements
Track Severe Weather on mobile